sensor_id;sensor_type;location;lat;lon;timestamp;temperature;humidity
9414;DHT22;4746;35.664;139.738;2024-02-21T00:00:09;10.50;99.90
9414;DHT22;4746;35.664;139.738;2024-02-21T00:02:37;10.50;99.90
9414;DHT22;4746;35.664;139.738;2024-02-21T00:05:05;10.50;99.90
9414;DHT22;4746;35.664;139.738;2024-02-21T00:07:33;10.50;99.90
9414;DHT22;4746;35.664;139.738;2024-02-21T00:10:07;10.50;99.90
9414;DHT22;4746;35.664;139.738;2024-02-21T00:12:35;10.60;99.90
9414;DHT22;4746;35.664;139.738;2024-02-21T00:15:03;10.70;99.90
9414;DHT22;4746;35.664;139.738;2024-02-21T00:17:31;10.80;99.90
9414;DHT22;4746;35.664;139.738;2024-02-21T00:19:58;10.90;99.90
9414;DHT22;4746;35.664;139.738;2024-02-21T00:22:28;10.80;99.90
9414;DHT22;4746;35.664;139.738;2024-02-21T00:24:59;10.80;99.90
9414;DHT22;4746;35.664;139.738;2024-02-21T00:27:27;10.80;99.90
9414;DHT22;4746;35.664;139.738;2024-02-21T00:29:55;10.80;99.90
9414;DHT22;4746;35.664;139.738;2024-02-21T00:32:22;10.80;99.90
9414;DHT22;4746;35.664;139.738;2024-02-21T00:34:50;10.90;99.90
9414;DHT22;4746;35.664;139.738;2024-02-21T00:37:18;10.90;99.90
9414;DHT22;4746;35.664;139.738;2024-02-21T00:39:45;10.90;99.90
9414;DHT22;4746;35.664;139.738;2024-02-21T00:42:13;10.80;99.90
9414;DHT22;4746;35.664;139.738;2024-02-21T00:44:41;10.90;99.90
9414;DHT22;4746;35.664;139.738;2024-02-21T00:47:09;10.70;99.90
9414;DHT22;4746;35.664;139.738;2024-02-21T00:49:37;10.70;99.90
9414;DHT22;4746;35.664;139.738;2024-02-21T00:52:04;10.70;99.90
9414;DHT22;4746;35.664;139.738;2024-02-21T00:54:32;10.70;99.90
9414;DHT22;4746;35.664;139.738;2024-02-21T00:57:00;10.60;99.90
9414;DHT22;4746;35.664;139.738;2024-02-21T00:59:28;10.60;99.90
9414;DHT22;4746;35.664;139.738;2024-02-21T01:01:55;10.60;99.90
9414;DHT22;4746;35.664;139.738;2024-02-21T01:04:23;10.70;99.90
9414;DHT22;4746;35.664;139.738;2024-02-21T01:06:51;10.70;99.90
9414;DHT22;4746;35.664;139.738;2024-02-21T01:09:18;10.60;99.90
9414;DHT22;4746;35.664;139.738;2024-02-21T01:11:45;10.60;99.90
9414;DHT22;4746;35.664;139.738;2024-02-21T01:14:13;10.70;99.90
9414;DHT22;4746;35.664;139.738;2024-02-21T01:16:40;10.60;99.90
9414;DHT22;4746;35.664;139.738;2024-02-21T01:19:08;10.60;99.90
9414;DHT22;4746;35.664;139.738;2024-02-21T01:21:36;10.50;99.90
9414;DHT22;4746;35.664;139.738;2024-02-21T01:24:03;10.50;99.90
9414;DHT22;4746;35.664;139.738;2024-02-21T01:26:31;10.50;99.90
9414;DHT22;4746;35.664;139.738;2024-02-21T01:28:59;10.40;99.90
9414;DHT22;4746;35.664;139.738;2024-02-21T01:31:26;10.40;99.90
9414;DHT22;4746;35.664;139.738;2024-02-21T01:33:56;10.40;99.90
9414;DHT22;4746;35.664;139.738;2024-02-21T01:36:24;10.40;99.90
9414;DHT22;4746;35.664;139.738;2024-02-21T01:38:51;10.40;99.90
9414;DHT22;4746;35.664;139.738;2024-02-21T01:41:19;10.40;99.90
9414;DHT22;4746;35.664;139.738;2024-02-21T01:43:46;10.30;99.90
9414;DHT22;4746;35.664;139.738;2024-02-21T01:46:14;10.30;99.90
9414;DHT22;4746;35.664;139.738;2024-02-21T01:48:42;10.30;99.90
9414;DHT22;4746;35.664;139.738;2024-02-21T01:51:12;10.20;99.90
9414;DHT22;4746;35.664;139.738;2024-02-21T01:53:43;10.20;99.90
9414;DHT22;4746;35.664;139.738;2024-02-21T01:56:12;10.10;99.90
9414;DHT22;4746;35.664;139.738;2024-02-21T01:58:43;10.10;99.90
9414;DHT22;4746;35.664;139.738;2024-02-21T02:01:11;10.00;99.90
9414;DHT22;4746;35.664;139.738;2024-02-21T02:03:39;10.10;99.90
9414;DHT22;4746;35.664;139.738;2024-02-21T02:06:07;10.10;99.90
9414;DHT22;4746;35.664;139.738;2024-02-21T02:08:35;10.10;99.90
9414;DHT22;4746;35.664;139.738;2024-02-21T02:11:04;10.10;99.90
9414;DHT22;4746;35.664;139.738;2024-02-21T02:13:33;10.10;99.90
9414;DHT22;4746;35.664;139.738;2024-02-21T02:16:00;10.10;99.90
9414;DHT22;4746;35.664;139.738;2024-02-21T02:18:28;10.10;99.90
9414;DHT22;4746;35.664;139.738;2024-02-21T02:20:55;10.10;99.90
9414;DHT22;4746;35.664;139.738;2024-02-21T02:23:29;10.20;99.90
9414;DHT22;4746;35.664;139.738;2024-02-21T02:25:58;10.30;99.90
9414;DHT22;4746;35.664;139.738;2024-02-21T02:28:27;10.30;99.90
9414;DHT22;4746;35.664;139.738;2024-02-21T02:30:58;10.30;99.90
9414;DHT22;4746;35.664;139.738;2024-02-21T02:33:25;10.40;99.90
9414;DHT22;4746;35.664;139.738;2024-02-21T02:35:53;10.40;99.90
9414;DHT22;4746;35.664;139.738;2024-02-21T02:38:20;10.40;99.90
9414;DHT22;4746;35.664;139.738;2024-02-21T02:40:48;10.40;99.90
9414;DHT22;4746;35.664;139.738;2024-02-21T02:43:15;10.40;99.90
9414;DHT22;4746;35.664;139.738;2024-02-21T02:45:43;10.40;99.90
9414;DHT22;4746;35.664;139.738;2024-02-21T02:48:10;10.30;99.90
9414;DHT22;4746;35.664;139.738;2024-02-21T02:50:37;10.30;99.90
9414;DHT22;4746;35.664;139.738;2024-02-21T02:53:05;10.40;99.90
9414;DHT22;4746;35.664;139.738;2024-02-21T02:55:32;10.40;99.90
9414;DHT22;4746;35.664;139.738;2024-02-21T02:58:01;10.40;99.90
9414;DHT22;4746;35.664;139.738;2024-02-21T03:00:30;10.50;99.90
9414;DHT22;4746;35.664;139.738;2024-02-21T03:03:02;10.50;99.90
9414;DHT22;4746;35.664;139.738;2024-02-21T03:05:34;10.60;99.90
9414;DHT22;4746;35.664;139.738;2024-02-21T03:08:02;10.50;99.90
9414;DHT22;4746;35.664;139.738;2024-02-21T03:10:35;10.60;99.90
9414;DHT22;4746;35.664;139.738;2024-02-21T03:13:03;10.60;99.90
9414;DHT22;4746;35.664;139.738;2024-02-21T03:15:31;10.50;99.90
9414;DHT22;4746;35.664;139.738;2024-02-21T03:17:58;10.50;99.90
9414;DHT22;4746;35.664;139.738;2024-02-21T03:20:27;10.50;99.90
9414;DHT22;4746;35.664;139.738;2024-02-21T03:22:55;10.40;99.90
9414;DHT22;4746;35.664;139.738;2024-02-21T03:25:22;10.40;99.90
9414;DHT22;4746;35.664;139.738;2024-02-21T03:27:50;10.50;99.90
9414;DHT22;4746;35.664;139.738;2024-02-21T03:30:18;10.50;99.90
9414;DHT22;4746;35.664;139.738;2024-02-21T03:32:45;10.50;99.90
9414;DHT22;4746;35.664;139.738;2024-02-21T03:35:12;10.50;99.90
9414;DHT22;4746;35.664;139.738;2024-02-21T03:37:40;10.60;99.90
9414;DHT22;4746;35.664;139.738;2024-02-21T03:40:10;10.60;99.90
9414;DHT22;4746;35.664;139.738;2024-02-21T03:42:38;10.60;99.90
9414;DHT22;4746;35.664;139.738;2024-02-21T03:45:06;10.60;99.90
9414;DHT22;4746;35.664;139.738;2024-02-21T03:47:34;10.70;99.90
9414;DHT22;4746;35.664;139.738;2024-02-21T03:50:02;10.70;99.90
9414;DHT22;4746;35.664;139.738;2024-02-21T03:52:33;10.70;99.90
9414;DHT22;4746;35.664;139.738;2024-02-21T03:55:04;10.80;99.90
9414;DHT22;4746;35.664;139.738;2024-02-21T03:57:37;10.80;99.90
9414;DHT22;4746;35.664;139.738;2024-02-21T04:00:10;10.70;99.90
9414;DHT22;4746;35.664;139.738;2024-02-21T04:02:38;10.70;99.90
9414;DHT22;4746;35.664;139.738;2024-02-21T04:05:06;10.70;99.90
9414;DHT22;4746;35.664;139.738;2024-02-21T04:07:38;10.70;99.90
9414;DHT22;4746;35.664;139.738;2024-02-21T04:10:09;10.70;99.90
9414;DHT22;4746;35.664;139.738;2024-02-21T04:12:41;10.70;99.90
9414;DHT22;4746;35.664;139.738;2024-02-21T04:15:09;10.70;99.90
9414;DHT22;4746;35.664;139.738;2024-02-21T04:17:37;10.70;99.90
9414;DHT22;4746;35.664;139.738;2024-02-21T04:20:05;10.60;99.90
9414;DHT22;4746;35.664;139.738;2024-02-21T04:22:35;10.60;99.90
9414;DHT22;4746;35.664;139.738;2024-02-21T04:25:02;10.60;99.90
9414;DHT22;4746;35.664;139.738;2024-02-21T04:27:30;10.50;99.90
9414;DHT22;4746;35.664;139.738;2024-02-21T04:29:58;10.40;99.90
9414;DHT22;4746;35.664;139.738;2024-02-21T04:32:25;10.40;99.90
9414;DHT22;4746;35.664;139.738;2024-02-21T04:34:53;10.40;99.90
9414;DHT22;4746;35.664;139.738;2024-02-21T04:37:21;10.50;99.90
9414;DHT22;4746;35.664;139.738;2024-02-21T04:39:49;10.50;99.90
9414;DHT22;4746;35.664;139.738;2024-02-21T04:42:17;10.50;99.90
9414;DHT22;4746;35.664;139.738;2024-02-21T04:44:45;10.50;99.90
9414;DHT22;4746;35.664;139.738;2024-02-21T04:47:13;10.50;99.90
9414;DHT22;4746;35.664;139.738;2024-02-21T04:49:40;10.50;99.90
9414;DHT22;4746;35.664;139.738;2024-02-21T04:52:08;10.60;99.90
9414;DHT22;4746;35.664;139.738;2024-02-21T04:54:38;10.70;99.90
9414;DHT22;4746;35.664;139.738;2024-02-21T04:57:08;10.70;99.90
9414;DHT22;4746;35.664;139.738;2024-02-21T04:59:36;10.70;99.90
9414;DHT22;4746;35.664;139.738;2024-02-21T05:02:04;10.80;99.90
9414;DHT22;4746;35.664;139.738;2024-02-21T05:04:32;10.90;99.90
9414;DHT22;4746;35.664;139.738;2024-02-21T05:07:00;11.00;99.90
9414;DHT22;4746;35.664;139.738;2024-02-21T05:09:27;11.00;99.90
9414;DHT22;4746;35.664;139.738;2024-02-21T05:11:59;11.00;99.90
9414;DHT22;4746;35.664;139.738;2024-02-21T05:14:27;10.90;99.90
9414;DHT22;4746;35.664;139.738;2024-02-21T05:16:55;10.90;99.90
9414;DHT22;4746;35.664;139.738;2024-02-21T05:19:22;10.90;99.90
9414;DHT22;4746;35.664;139.738;2024-02-21T05:21:52;10.80;99.90
9414;DHT22;4746;35.664;139.738;2024-02-21T05:24:23;10.70;99.90
9414;DHT22;4746;35.664;139.738;2024-02-21T05:26:53;10.60;99.90
9414;DHT22;4746;35.664;139.738;2024-02-21T05:29:20;10.50;99.90
9414;DHT22;4746;35.664;139.738;2024-02-21T05:34:19;10.40;99.90
9414;DHT22;4746;35.664;139.738;2024-02-21T05:36:47;10.30;99.90
9414;DHT22;4746;35.664;139.738;2024-02-21T05:39:28;10.20;99.90
9414;DHT22;4746;35.664;139.738;2024-02-21T05:42:10;10.20;99.90
9414;DHT22;4746;35.664;139.738;2024-02-21T05:44:44;10.20;99.90
9414;DHT22;4746;35.664;139.738;2024-02-21T05:47:12;10.20;99.90
9414;DHT22;4746;35.664;139.738;2024-02-21T05:49:44;10.30;99.90
9414;DHT22;4746;35.664;139.738;2024-02-21T05:52:12;10.30;99.90
9414;DHT22;4746;35.664;139.738;2024-02-21T05:54:41;10.30;99.90
9414;DHT22;4746;35.664;139.738;2024-02-21T05:57:09;10.30;99.90
9414;DHT22;4746;35.664;139.738;2024-02-21T05:59:38;10.20;99.90
9414;DHT22;4746;35.664;139.738;2024-02-21T06:02:08;10.20;99.90
9414;DHT22;4746;35.664;139.738;2024-02-21T06:04:52;10.20;99.90
9414;DHT22;4746;35.664;139.738;2024-02-21T06:08:08;10.30;99.90
9414;DHT22;4746;35.664;139.738;2024-02-21T06:10:48;10.40;99.90
9414;DHT22;4746;35.664;139.738;2024-02-21T06:13:27;10.50;99.90
9414;DHT22;4746;35.664;139.738;2024-02-21T06:15:55;10.50;99.90
9414;DHT22;4746;35.664;139.738;2024-02-21T06:18:38;10.40;99.90
9414;DHT22;4746;35.664;139.738;2024-02-21T06:21:06;10.40;99.90
9414;DHT22;4746;35.664;139.738;2024-02-21T06:23:36;10.30;99.90
9414;DHT22;4746;35.664;139.738;2024-02-21T06:26:11;10.20;99.90
9414;DHT22;4746;35.664;139.738;2024-02-21T06:28:47;10.20;99.90
9414;DHT22;4746;35.664;139.738;2024-02-21T06:31:14;10.20;99.90
9414;DHT22;4746;35.664;139.738;2024-02-21T06:33:42;10.20;99.90
9414;DHT22;4746;35.664;139.738;2024-02-21T06:36:10;10.30;99.90
9414;DHT22;4746;35.664;139.738;2024-02-21T06:38:39;10.30;99.90
9414;DHT22;4746;35.664;139.738;2024-02-21T06:41:22;10.40;99.90
9414;DHT22;4746;35.664;139.738;2024-02-21T06:44:07;10.50;99.90
9414;DHT22;4746;35.664;139.738;2024-02-21T06:46:37;10.50;99.90
9414;DHT22;4746;35.664;139.738;2024-02-21T06:49:08;10.50;99.90
9414;DHT22;4746;35.664;139.738;2024-02-21T06:54:57;10.50;99.90
9414;DHT22;4746;35.664;139.738;2024-02-21T06:57:37;10.50;99.90
9414;DHT22;4746;35.664;139.738;2024-02-21T07:00:17;10.50;99.90
9414;DHT22;4746;35.664;139.738;2024-02-21T07:02:45;10.50;99.90
9414;DHT22;4746;35.664;139.738;2024-02-21T07:05:12;10.50;99.90
9414;DHT22;4746;35.664;139.738;2024-02-21T07:07:40;10.50;99.90
9414;DHT22;4746;35.664;139.738;2024-02-21T07:10:08;10.50;99.90
9414;DHT22;4746;35.664;139.738;2024-02-21T07:12:42;10.50;99.90
9414;DHT22;4746;35.664;139.738;2024-02-21T07:15:19;10.40;99.90
9414;DHT22;4746;35.664;139.738;2024-02-21T07:17:52;10.40;99.90
9414;DHT22;4746;35.664;139.738;2024-02-21T07:20:20;10.40;99.90
9414;DHT22;4746;35.664;139.738;2024-02-21T07:22:48;10.50;99.90
9414;DHT22;4746;35.664;139.738;2024-02-21T07:25:23;10.50;99.90
9414;DHT22;4746;35.664;139.738;2024-02-21T07:28:00;10.60;99.90
9414;DHT22;4746;35.664;139.738;2024-02-21T07:30:36;10.60;99.90
9414;DHT22;4746;35.664;139.738;2024-02-21T07:33:04;10.60;99.90
9414;DHT22;4746;35.664;139.738;2024-02-21T07:35:33;10.60;99.90
9414;DHT22;4746;35.664;139.738;2024-02-21T07:38:01;10.70;99.90
9414;DHT22;4746;35.664;139.738;2024-02-21T07:43:49;10.80;99.90
9414;DHT22;4746;35.664;139.738;2024-02-21T07:46:47;10.80;99.90
9414;DHT22;4746;35.664;139.738;2024-02-21T07:49:30;10.70;99.90
9414;DHT22;4746;35.664;139.738;2024-02-21T07:52:10;10.70;99.90
9414;DHT22;4746;35.664;139.738;2024-02-21T07:54:52;10.60;99.90
9414;DHT22;4746;35.664;139.738;2024-02-21T07:57:19;10.50;99.90
9414;DHT22;4746;35.664;139.738;2024-02-21T07:59:48;10.60;99.90
9414;DHT22;4746;35.664;139.738;2024-02-21T08:02:16;10.60;99.90
9414;DHT22;4746;35.664;139.738;2024-02-21T08:04:43;10.70;99.90
9414;DHT22;4746;35.664;139.738;2024-02-21T08:07:11;10.80;99.90
9414;DHT22;4746;35.664;139.738;2024-02-21T08:09:40;10.80;99.90
9414;DHT22;4746;35.664;139.738;2024-02-21T08:12:09;10.90;99.90
9414;DHT22;4746;35.664;139.738;2024-02-21T08:14:36;10.90;99.90
9414;DHT22;4746;35.664;139.738;2024-02-21T08:17:04;10.90;99.90
9414;DHT22;4746;35.664;139.738;2024-02-21T08:19:31;11.00;99.90
9414;DHT22;4746;35.664;139.738;2024-02-21T08:21:59;11.00;99.90
9414;DHT22;4746;35.664;139.738;2024-02-21T08:24:26;11.00;99.90
9414;DHT22;4746;35.664;139.738;2024-02-21T08:26:54;11.00;99.90
9414;DHT22;4746;35.664;139.738;2024-02-21T08:29:21;11.00;99.90
9414;DHT22;4746;35.664;139.738;2024-02-21T08:31:49;11.00;99.90
9414;DHT22;4746;35.664;139.738;2024-02-21T08:34:17;11.00;99.90
9414;DHT22;4746;35.664;139.738;2024-02-21T08:36:46;11.00;99.90
9414;DHT22;4746;35.664;139.738;2024-02-21T08:39:16;11.00;99.90
9414;DHT22;4746;35.664;139.738;2024-02-21T08:41:43;11.00;99.90
9414;DHT22;4746;35.664;139.738;2024-02-21T08:44:11;11.00;99.90
9414;DHT22;4746;35.664;139.738;2024-02-21T08:46:39;11.00;99.90
9414;DHT22;4746;35.664;139.738;2024-02-21T08:49:06;11.00;99.90
9414;DHT22;4746;35.664;139.738;2024-02-21T08:51:34;11.10;99.90
9414;DHT22;4746;35.664;139.738;2024-02-21T08:54:03;11.00;99.90
9414;DHT22;4746;35.664;139.738;2024-02-21T08:56:31;11.00;99.90
9414;DHT22;4746;35.664;139.738;2024-02-21T08:58:59;11.00;99.90
9414;DHT22;4746;35.664;139.738;2024-02-21T09:01:27;11.00;99.90
9414;DHT22;4746;35.664;139.738;2024-02-21T09:03:55;11.00;99.90
9414;DHT22;4746;35.664;139.738;2024-02-21T09:06:23;11.00;99.90
9414;DHT22;4746;35.664;139.738;2024-02-21T09:08:50;10.90;99.90
9414;DHT22;4746;35.664;139.738;2024-02-21T09:11:18;10.90;99.90
9414;DHT22;4746;35.664;139.738;2024-02-21T09:13:45;10.90;99.90
9414;DHT22;4746;35.664;139.738;2024-02-21T09:16:13;10.90;99.90
9414;DHT22;4746;35.664;139.738;2024-02-21T09:18:41;10.90;99.90
9414;DHT22;4746;35.664;139.738;2024-02-21T09:21:08;10.90;99.90
9414;DHT22;4746;35.664;139.738;2024-02-21T09:23:36;10.90;99.90
9414;DHT22;4746;35.664;139.738;2024-02-21T09:26:03;11.00;99.90
9414;DHT22;4746;35.664;139.738;2024-02-21T09:28:31;11.00;99.90
9414;DHT22;4746;35.664;139.738;2024-02-21T09:31:00;11.00;99.90
9414;DHT22;4746;35.664;139.738;2024-02-21T09:33:28;11.00;99.90
9414;DHT22;4746;35.664;139.738;2024-02-21T09:35:55;11.10;99.90
9414;DHT22;4746;35.664;139.738;2024-02-21T09:38:25;11.10;99.90
9414;DHT22;4746;35.664;139.738;2024-02-21T09:41:06;11.10;99.90
9414;DHT22;4746;35.664;139.738;2024-02-21T09:43:37;11.00;99.90
9414;DHT22;4746;35.664;139.738;2024-02-21T09:46:17;11.00;99.90
9414;DHT22;4746;35.664;139.738;2024-02-21T09:48:53;10.90;99.90
9414;DHT22;4746;35.664;139.738;2024-02-21T09:51:32;10.80;99.90
9414;DHT22;4746;35.664;139.738;2024-02-21T09:54:02;10.70;99.90
9414;DHT22;4746;35.664;139.738;2024-02-21T09:56:31;10.70;99.90
9414;DHT22;4746;35.664;139.738;2024-02-21T09:58:59;10.70;99.90
9414;DHT22;4746;35.664;139.738;2024-02-21T10:01:31;10.70;99.90
9414;DHT22;4746;35.664;139.738;2024-02-21T10:04:00;10.60;99.90
9414;DHT22;4746;35.664;139.738;2024-02-21T10:06:29;10.60;99.90
9414;DHT22;4746;35.664;139.738;2024-02-21T10:08:56;10.50;99.90
9414;DHT22;4746;35.664;139.738;2024-02-21T10:11:25;10.50;99.90
9414;DHT22;4746;35.664;139.738;2024-02-21T10:14:07;10.50;99.90
9414;DHT22;4746;35.664;139.738;2024-02-21T10:16:35;10.60;99.90
9414;DHT22;4746;35.664;139.738;2024-02-21T10:19:03;10.60;99.90
9414;DHT22;4746;35.664;139.738;2024-02-21T10:21:34;10.60;99.90
9414;DHT22;4746;35.664;139.738;2024-02-21T10:24:02;10.50;99.90
9414;DHT22;4746;35.664;139.738;2024-02-21T10:26:32;10.50;99.90
9414;DHT22;4746;35.664;139.738;2024-02-21T10:29:01;10.50;99.90
9414;DHT22;4746;35.664;139.738;2024-02-21T10:31:29;10.50;99.90
9414;DHT22;4746;35.664;139.738;2024-02-21T10:34:00;10.50;99.90
9414;DHT22;4746;35.664;139.738;2024-02-21T10:36:32;10.60;99.90
9414;DHT22;4746;35.664;139.738;2024-02-21T10:39:00;10.50;99.90
9414;DHT22;4746;35.664;139.738;2024-02-21T10:41:28;10.60;99.90
9414;DHT22;4746;35.664;139.738;2024-02-21T10:43:58;10.60;99.90
9414;DHT22;4746;35.664;139.738;2024-02-21T10:46:31;10.60;99.90
9414;DHT22;4746;35.664;139.738;2024-02-21T10:49:22;10.70;99.90
9414;DHT22;4746;35.664;139.738;2024-02-21T10:52:56;10.70;99.90
9414;DHT22;4746;35.664;139.738;2024-02-21T10:55:31;10.70;99.90
9414;DHT22;4746;35.664;139.738;2024-02-21T10:58:05;10.80;99.90
9414;DHT22;4746;35.664;139.738;2024-02-21T11:00:34;10.70;99.90
9414;DHT22;4746;35.664;139.738;2024-02-21T11:03:03;10.70;99.90
9414;DHT22;4746;35.664;139.738;2024-02-21T11:05:31;10.80;99.90
9414;DHT22;4746;35.664;139.738;2024-02-21T11:08:00;10.70;99.90
9414;DHT22;4746;35.664;139.738;2024-02-21T11:10:30;10.70;99.90
9414;DHT22;4746;35.664;139.738;2024-02-21T11:13:10;10.60;99.90
9414;DHT22;4746;35.664;139.738;2024-02-21T11:15:41;10.60;99.90
9414;DHT22;4746;35.664;139.738;2024-02-21T11:18:09;10.60;99.90
9414;DHT22;4746;35.664;139.738;2024-02-21T11:20:38;10.70;99.90
9414;DHT22;4746;35.664;139.738;2024-02-21T11:23:07;10.70;99.90
9414;DHT22;4746;35.664;139.738;2024-02-21T11:25:37;10.70;99.90
9414;DHT22;4746;35.664;139.738;2024-02-21T11:28:05;10.80;99.90
9414;DHT22;4746;35.664;139.738;2024-02-21T11:30:38;10.80;99.90
9414;DHT22;4746;35.664;139.738;2024-02-21T11:33:12;10.80;99.90
9414;DHT22;4746;35.664;139.738;2024-02-21T11:35:40;10.80;99.90
9414;DHT22;4746;35.664;139.738;2024-02-21T11:38:17;10.70;99.90
9414;DHT22;4746;35.664;139.738;2024-02-21T11:40:51;10.70;99.90
9414;DHT22;4746;35.664;139.738;2024-02-21T11:43:53;10.70;99.90
9414;DHT22;4746;35.664;139.738;2024-02-21T11:46:24;10.70;99.90
9414;DHT22;4746;35.664;139.738;2024-02-21T11:49:10;10.70;99.90
9414;DHT22;4746;35.664;139.738;2024-02-21T11:51:45;10.70;99.90
9414;DHT22;4746;35.664;139.738;2024-02-21T11:54:19;10.70;99.90
9414;DHT22;4746;35.664;139.738;2024-02-21T11:56:57;10.60;99.90
9414;DHT22;4746;35.664;139.738;2024-02-21T11:59:44;10.60;99.90
9414;DHT22;4746;35.664;139.738;2024-02-21T12:02:25;10.60;99.90
9414;DHT22;4746;35.664;139.738;2024-02-21T12:04:53;10.50;99.90
9414;DHT22;4746;35.664;139.738;2024-02-21T12:07:22;10.60;99.90
9414;DHT22;4746;35.664;139.738;2024-02-21T12:09:51;10.50;99.90
9414;DHT22;4746;35.664;139.738;2024-02-21T12:12:20;10.50;99.90
9414;DHT22;4746;35.664;139.738;2024-02-21T12:14:57;10.50;99.90
9414;DHT22;4746;35.664;139.738;2024-02-21T12:17:26;10.60;99.90
9414;DHT22;4746;35.664;139.738;2024-02-21T12:19:56;10.60;99.90
9414;DHT22;4746;35.664;139.738;2024-02-21T12:22:26;10.60;99.90
9414;DHT22;4746;35.664;139.738;2024-02-21T12:24:54;10.60;99.90
9414;DHT22;4746;35.664;139.738;2024-02-21T12:27:22;10.60;99.90
9414;DHT22;4746;35.664;139.738;2024-02-21T12:29:52;10.70;99.90
9414;DHT22;4746;35.664;139.738;2024-02-21T12:32:23;10.60;99.90
9414;DHT22;4746;35.664;139.738;2024-02-21T12:35:42;10.70;99.90
9414;DHT22;4746;35.664;139.738;2024-02-21T12:38:14;10.70;99.90
9414;DHT22;4746;35.664;139.738;2024-02-21T12:41:08;10.70;99.90
9414;DHT22;4746;35.664;139.738;2024-02-21T12:43:42;10.70;99.90
9414;DHT22;4746;35.664;139.738;2024-02-21T12:46:10;10.70;99.90
9414;DHT22;4746;35.664;139.738;2024-02-21T12:48:41;10.70;99.90
9414;DHT22;4746;35.664;139.738;2024-02-21T12:51:11;10.70;99.90
9414;DHT22;4746;35.664;139.738;2024-02-21T12:53:42;10.60;99.90
9414;DHT22;4746;35.664;139.738;2024-02-21T12:56:12;10.60;99.90
9414;DHT22;4746;35.664;139.738;2024-02-21T12:58:43;10.60;99.90
9414;DHT22;4746;35.664;139.738;2024-02-21T13:01:11;10.50;99.90
9414;DHT22;4746;35.664;139.738;2024-02-21T13:03:38;10.50;99.90
9414;DHT22;4746;35.664;139.738;2024-02-21T13:06:06;10.40;99.90
9414;DHT22;4746;35.664;139.738;2024-02-21T13:08:37;10.40;99.90
9414;DHT22;4746;35.664;139.738;2024-02-21T13:11:06;10.40;99.90
9414;DHT22;4746;35.664;139.738;2024-02-21T13:13:33;10.40;99.90
9414;DHT22;4746;35.664;139.738;2024-02-21T13:16:01;10.30;99.90
9414;DHT22;4746;35.664;139.738;2024-02-21T13:18:29;10.20;99.90
9414;DHT22;4746;35.664;139.738;2024-02-21T13:20:58;10.20;99.90
9414;DHT22;4746;35.664;139.738;2024-02-21T13:23:26;10.10;99.90
9414;DHT22;4746;35.664;139.738;2024-02-21T13:25:56;10.10;99.90
9414;DHT22;4746;35.664;139.738;2024-02-21T13:28:23;10.10;99.90
9414;DHT22;4746;35.664;139.738;2024-02-21T13:30:51;10.00;99.90
9414;DHT22;4746;35.664;139.738;2024-02-21T13:33:27;10.00;99.90
9414;DHT22;4746;35.664;139.738;2024-02-21T13:35:57;10.00;99.90
9414;DHT22;4746;35.664;139.738;2024-02-21T13:38:25;10.00;99.90
9414;DHT22;4746;35.664;139.738;2024-02-21T13:40:54;10.00;99.90
9414;DHT22;4746;35.664;139.738;2024-02-21T13:43:22;9.90;99.90
9414;DHT22;4746;35.664;139.738;2024-02-21T13:46:02;10.00;99.90
9414;DHT22;4746;35.664;139.738;2024-02-21T13:48:36;9.90;99.90
9414;DHT22;4746;35.664;139.738;2024-02-21T13:51:06;9.90;99.90
9414;DHT22;4746;35.664;139.738;2024-02-21T13:53:34;10.00;99.90
9414;DHT22;4746;35.664;139.738;2024-02-21T13:56:01;10.00;99.90
9414;DHT22;4746;35.664;139.738;2024-02-21T13:58:31;10.00;99.90
9414;DHT22;4746;35.664;139.738;2024-02-21T14:00:58;10.10;99.90
9414;DHT22;4746;35.664;139.738;2024-02-21T14:03:29;10.10;99.90
9414;DHT22;4746;35.664;139.738;2024-02-21T14:05:59;10.10;99.90
9414;DHT22;4746;35.664;139.738;2024-02-21T14:08:28;10.10;99.90
9414;DHT22;4746;35.664;139.738;2024-02-21T14:10:56;10.10;99.90
9414;DHT22;4746;35.664;139.738;2024-02-21T14:13:25;10.20;99.90
9414;DHT22;4746;35.664;139.738;2024-02-21T14:15:53;10.20;99.90
9414;DHT22;4746;35.664;139.738;2024-02-21T14:18:20;10.20;99.90
9414;DHT22;4746;35.664;139.738;2024-02-21T14:20:48;10.20;99.90
9414;DHT22;4746;35.664;139.738;2024-02-21T14:23:16;10.30;99.90
9414;DHT22;4746;35.664;139.738;2024-02-21T14:25:48;10.20;99.90
9414;DHT22;4746;35.664;139.738;2024-02-21T14:28:16;10.20;99.90
9414;DHT22;4746;35.664;139.738;2024-02-21T14:30:45;10.10;99.90
9414;DHT22;4746;35.664;139.738;2024-02-21T14:33:20;10.00;99.90
9414;DHT22;4746;35.664;139.738;2024-02-21T14:35:47;10.00;99.90
9414;DHT22;4746;35.664;139.738;2024-02-21T14:38:21;10.00;99.90
9414;DHT22;4746;35.664;139.738;2024-02-21T14:40:48;10.00;99.90
9414;DHT22;4746;35.664;139.738;2024-02-21T14:43:16;10.00;99.90
9414;DHT22;4746;35.664;139.738;2024-02-21T14:45:44;10.00;99.90
9414;DHT22;4746;35.664;139.738;2024-02-21T14:48:14;10.00;99.90
9414;DHT22;4746;35.664;139.738;2024-02-21T14:50:43;10.00;99.90
9414;DHT22;4746;35.664;139.738;2024-02-21T14:53:11;9.90;99.90
9414;DHT22;4746;35.664;139.738;2024-02-21T14:55:38;9.90;99.90
9414;DHT22;4746;35.664;139.738;2024-02-21T14:58:08;9.90;99.90
9414;DHT22;4746;35.664;139.738;2024-02-21T15:00:35;9.90;99.90
9414;DHT22;4746;35.664;139.738;2024-02-21T15:03:03;9.80;99.90
9414;DHT22;4746;35.664;139.738;2024-02-21T15:05:31;9.80;99.90
9414;DHT22;4746;35.664;139.738;2024-02-21T15:08:00;9.80;99.90
9414;DHT22;4746;35.664;139.738;2024-02-21T15:10:27;9.80;99.90
9414;DHT22;4746;35.664;139.738;2024-02-21T15:12:55;9.90;99.90
9414;DHT22;4746;35.664;139.738;2024-02-21T15:15:22;9.80;99.90
9414;DHT22;4746;35.664;139.738;2024-02-21T15:17:50;9.80;99.90
9414;DHT22;4746;35.664;139.738;2024-02-21T15:20:17;9.70;99.90
9414;DHT22;4746;35.664;139.738;2024-02-21T15:22:45;9.70;99.90
9414;DHT22;4746;35.664;139.738;2024-02-21T15:25:14;9.70;99.90
9414;DHT22;4746;35.664;139.738;2024-02-21T15:27:47;9.70;99.90
9414;DHT22;4746;35.664;139.738;2024-02-21T15:30:15;9.60;99.90
9414;DHT22;4746;35.664;139.738;2024-02-21T15:32:43;9.60;99.90
9414;DHT22;4746;35.664;139.738;2024-02-21T15:35:11;9.60;99.90
9414;DHT22;4746;35.664;139.738;2024-02-21T15:37:38;9.50;99.90
9414;DHT22;4746;35.664;139.738;2024-02-21T15:40:06;9.50;99.90
9414;DHT22;4746;35.664;139.738;2024-02-21T15:42:34;9.50;99.90
9414;DHT22;4746;35.664;139.738;2024-02-21T15:45:02;9.60;99.90
9414;DHT22;4746;35.664;139.738;2024-02-21T15:47:31;9.60;99.90
9414;DHT22;4746;35.664;139.738;2024-02-21T15:50:01;9.60;99.90
9414;DHT22;4746;35.664;139.738;2024-02-21T15:52:29;9.40;99.90
9414;DHT22;4746;35.664;139.738;2024-02-21T15:54:57;9.30;99.90
9414;DHT22;4746;35.664;139.738;2024-02-21T15:57:30;9.30;99.90
9414;DHT22;4746;35.664;139.738;2024-02-21T15:59:58;9.30;99.90